Time;durP1;ratioP1;P1;durP2;ratioP2;P2;SDS_P1;SDS_P2;PMS_P1;PMS_P2;Temp;Humidity;BMP_temperature;BMP_pressure;BME280_temperature;BME280_humidity;BME280_pressure;Samples;Min_cycle;Max_cycle;Signal;HPM_P1;HPM_P2
2023/07/18 00:02:07;;;;;;;22.58;16.77;;;27.10;77.00;;;;;;4977672;28;20019;-68
2023/07/18 00:04:32;;;;;;;23.33;16.92;;;27.10;77.00;;;;;;4977908;28;20035;-68
2023/07/18 00:06:58;;;;;;;24.15;17.33;;;27.00;77.00;;;;;;4977694;28;20392;-69
2023/07/18 00:09:25;;;;;;;23.90;16.95;;;27.00;77.00;;;;;;4977507;28;20089;-68
2023/07/18 00:11:51;;;;;;;21.52;15.52;;;27.00;77.00;;;;;;4976557;28;20471;-69
2023/07/18 00:14:17;;;;;;;23.73;16.95;;;26.90;77.00;;;;;;4977722;28;20106;-69
2023/07/18 00:16:44;;;;;;;23.77;16.85;;;26.90;77.10;;;;;;4977342;28;20023;-68
2023/07/18 00:19:12;;;;;;;20.30;16.25;;;26.90;77.20;;;;;;4977590;28;20381;-72
2023/07/18 00:21:39;;;;;;;22.25;17.30;;;26.90;77.20;;;;;;4977362;28;20444;-68
2023/07/18 00:24:06;;;;;;;22.02;16.98;;;26.90;77.20;;;;;;4977314;28;20031;-67
2023/07/18 00:26:33;;;;;;;23.50;17.92;;;26.90;77.20;;;;;;4976192;28;20022;-69
2023/07/18 00:28:59;;;;;;;21.70;16.25;;;26.90;77.30;;;;;;4977259;28;20027;-67
2023/07/18 00:31:25;;;;;;;19.38;15.80;;;26.90;77.30;;;;;;4977692;28;20030;-70
2023/07/18 00:33:51;;;;;;;21.98;16.63;;;26.90;77.30;;;;;;4977100;28;20030;-69
2023/07/18 00:36:17;;;;;;;23.88;17.80;;;26.90;77.30;;;;;;4977294;28;20317;-71
2023/07/18 00:38:43;;;;;;;22.15;16.33;;;26.90;77.30;;;;;;4976992;28;20065;-68
2023/07/18 00:41:11;;;;;;;22.55;17.10;;;26.90;77.30;;;;;;4976965;28;20027;-71
2023/07/18 00:43:37;;;;;;;26.63;18.02;;;26.80;77.40;;;;;;4976784;28;20031;-71
2023/07/18 00:46:04;;;;;;;20.42;17.52;;;26.80;77.50;;;;;;4976463;28;20086;-68
2023/07/18 00:48:33;;;;;;;23.00;17.50;;;26.80;77.50;;;;;;4975916;28;20023;-68
2023/07/18 00:51:07;;;;;;;19.52;15.43;;;26.80;77.50;;;;;;4976814;28;20102;-71
2023/07/18 00:53:35;;;;;;;23.08;17.65;;;26.70;77.50;;;;;;4975932;28;20037;-65
2023/07/18 00:56:01;;;;;;;22.17;16.83;;;26.70;77.60;;;;;;4976804;28;20019;-66
2023/07/18 00:58:29;;;;;;;22.30;17.77;;;26.70;77.60;;;;;;4976908;28;20040;-70
2023/07/18 01:00:56;;;;;;;27.88;19.88;;;26.70;77.60;;;;;;4976934;28;20090;-67
2023/07/18 01:03:22;;;;;;;25.20;19.35;;;26.60;77.70;;;;;;4976586;28;20089;-69
2023/07/18 01:05:49;;;;;;;26.58;17.55;;;26.60;77.90;;;;;;4976489;28;20019;-69
2023/07/18 01:08:15;;;;;;;23.98;19.35;;;26.60;78.00;;;;;;4976548;28;20023;-67
2023/07/18 01:10:41;;;;;;;27.45;20.35;;;26.60;78.10;;;;;;4977054;28;20098;-70
2023/07/18 01:13:07;;;;;;;28.00;19.75;;;26.60;78.10;;;;;;4976756;28;20401;-68
2023/07/18 01:15:34;;;;;;;22.17;17.55;;;26.50;78.30;;;;;;4976766;28;20023;-68
2023/07/18 01:18:06;;;;;;;24.42;18.52;;;26.50;78.30;;;;;;4976630;28;20334;-70
2023/07/18 01:20:33;;;;;;;25.43;19.97;;;26.50;78.30;;;;;;4976765;28;20085;-66
2023/07/18 01:23:00;;;;;;;27.13;19.13;;;26.50;78.40;;;;;;4976383;28;20286;-69
2023/07/18 01:25:27;;;;;;;22.52;18.50;;;26.50;78.50;;;;;;4976309;28;20034;-69
2023/07/18 01:27:55;;;;;;;25.50;19.10;;;26.50;78.60;;;;;;4975349;28;20019;-65
2023/07/18 01:30:24;;;;;;;24.17;18.00;;;26.50;78.50;;;;;;4976278;28;20031;-69
2023/07/18 01:32:52;;;;;;;22.50;18.33;;;26.50;78.50;;;;;;4976390;28;20030;-67
2023/07/18 01:35:21;;;;;;;25.55;17.77;;;26.40;78.60;;;;;;4976267;28;20480;-68
2023/07/18 01:37:48;;;;;;;27.10;19.63;;;26.40;78.60;;;;;;4976254;28;20062;-69
2023/07/18 01:40:19;;;;;;;22.27;17.88;;;26.40;78.60;;;;;;4976557;28;20022;-69
2023/07/18 01:42:46;;;;;;;21.80;16.77;;;26.40;78.60;;;;;;4976278;28;20026;-70
2023/07/18 01:45:13;;;;;;;26.45;18.58;;;26.40;78.60;;;;;;4976522;28;20034;-69
2023/07/18 01:47:40;;;;;;;22.48;16.60;;;26.40;78.60;;;;;;4976273;28;20026;-67
2023/07/18 01:50:07;;;;;;;20.75;17.17;;;26.40;78.70;;;;;;4976452;28;20107;-69
2023/07/18 01:52:34;;;;;;;23.65;17.00;;;26.40;78.70;;;;;;4976460;28;20023;-67
2023/07/18 01:55:02;;;;;;;24.17;16.70;;;26.40;78.70;;;;;;4976107;28;20026;-69
2023/07/18 01:57:31;;;;;;;24.17;16.55;;;26.40;78.70;;;;;;4978222;28;20027;-68
2023/07/18 02:00:00;;;;;;;20.15;15.68;;;26.30;78.70;;;;;;4979916;28;20034;-71
2023/07/18 02:02:29;;;;;;;20.30;15.90;;;26.30;78.70;;;;;;4980111;28;20085;-67
2023/07/18 02:04:56;;;;;;;21.58;15.57;;;26.30;78.70;;;;;;4980109;28;20105;-69
2023/07/18 02:07:22;;;;;;;23.77;17.92;;;26.30;78.70;;;;;;4978694;28;20026;-69
2023/07/18 02:09:51;;;;;;;24.70;17.95;;;26.30;78.70;;;;;;4979341;28;20023;-71
2023/07/18 02:12:19;;;;;;;24.25;17.27;;;26.30;78.80;;;;;;4979922;28;20027;-69
2023/07/18 02:14:45;;;;;;;23.45;16.50;;;26.30;78.70;;;;;;4980171;28;20073;-70
2023/07/18 02:17:11;;;;;;;23.40;16.77;;;26.30;78.80;;;;;;4979556;28;20435;-69
2023/07/18 02:19:37;;;;;;;23.98;17.55;;;26.20;78.70;;;;;;4979587;28;20031;-71
2023/07/18 02:22:04;;;;;;;24.40;19.42;;;26.20;78.70;;;;;;4979479;28;20404;-68
2023/07/18 02:24:30;;;;;;;23.55;19.30;;;26.20;78.70;;;;;;4979772;28;20026;-69
2023/07/18 02:26:57;;;;;;;28.88;19.52;;;26.20;78.80;;;;;;4979503;28;20023;-71
2023/07/18 02:29:23;;;;;;;27.48;19.35;;;26.20;78.80;;;;;;4979638;28;20105;-67
2023/07/18 02:31:49;;;;;;;22.02;18.58;;;26.20;78.80;;;;;;4979382;28;20441;-70
2023/07/18 02:34:16;;;;;;;21.15;18.13;;;26.20;78.80;;;;;;4978388;28;20045;-67
2023/07/18 02:36:42;;;;;;;26.00;19.25;;;26.10;78.80;;;;;;4979228;28;20054;-67
2023/07/18 02:39:10;;;;;;;26.55;18.13;;;26.10;78.80;;;;;;4979019;28;20057;-70
2023/07/18 02:41:37;;;;;;;27.98;18.35;;;26.10;78.90;;;;;;4979106;28;20042;-69
2023/07/18 02:44:04;;;;;;;22.38;18.50;;;26.10;78.90;;;;;;4979104;28;20353;-67
2023/07/18 02:46:30;;;;;;;21.10;16.90;;;26.10;78.80;;;;;;4978947;28;20110;-67
2023/07/18 02:48:56;;;;;;;23.45;18.00;;;26.10;78.90;;;;;;4979080;28;20074;-67
2023/07/18 02:51:22;;;;;;;20.95;17.50;;;26.00;78.90;;;;;;4979283;28;20023;-68
2023/07/18 02:53:51;;;;;;;24.85;17.52;;;26.00;78.90;;;;;;4979006;28;20018;-67
2023/07/18 02:56:18;;;;;;;23.20;16.27;;;26.00;78.90;;;;;;4979381;28;20026;-70
2023/07/18 02:58:44;;;;;;;20.77;15.63;;;26.00;78.90;;;;;;4979137;28;20465;-70
2023/07/18 03:01:11;;;;;;;24.35;18.15;;;26.00;78.90;;;;;;4979095;28;20034;-67
2023/07/18 03:03:41;;;;;;;25.00;19.02;;;26.00;78.90;;;;;;4979311;28;20057;-72
2023/07/18 03:06:09;;;;;;;23.30;18.05;;;26.00;78.90;;;;;;4978640;28;20075;-68
2023/07/18 03:08:36;;;;;;;23.55;18.05;;;26.00;79.00;;;;;;4978507;28;20023;-68
2023/07/18 03:11:05;;;;;;;26.08;18.92;;;26.00;78.90;;;;;;4978586;28;20031;-71
2023/07/18 03:13:31;;;;;;;24.95;18.10;;;26.00;79.00;;;;;;4978589;28;20486;-68
2023/07/18 03:15:58;;;;;;;21.33;17.10;;;26.00;78.90;;;;;;4978789;28;20034;-68
2023/07/18 03:18:24;;;;;;;19.88;15.88;;;26.00;79.00;;;;;;4978979;28;20116;-68
2023/07/18 03:20:50;;;;;;;19.83;16.35;;;26.00;79.00;;;;;;4978760;28;20081;-69
2023/07/18 03:23:16;;;;;;;20.00;16.40;;;26.00;79.00;;;;;;4978328;28;20107;-69
2023/07/18 03:25:42;;;;;;;20.92;17.33;;;25.90;79.00;;;;;;4978851;28;20064;-69
2023/07/18 03:28:09;;;;;;;23.52;17.75;;;26.00;79.00;;;;;;4978568;28;20073;-71
2023/07/18 03:30:36;;;;;;;22.13;17.52;;;26.00;78.90;;;;;;4978320;28;20030;-68
2023/07/18 03:33:02;;;;;;;23.10;16.88;;;26.00;79.00;;;;;;4977923;28;20015;-66
2023/07/18 03:35:28;;;;;;;19.00;16.95;;;26.00;79.00;;;;;;4978479;28;20030;-66
2023/07/18 03:37:54;;;;;;;22.08;17.92;;;26.00;79.10;;;;;;4977345;28;20057;-71
2023/07/18 03:40:20;;;;;;;20.92;16.70;;;26.00;79.00;;;;;;4978400;28;20085;-70
2023/07/18 03:42:47;;;;;;;22.88;17.10;;;26.00;79.10;;;;;;4977089;28;20388;-68
2023/07/18 03:45:14;;;;;;;21.00;16.27;;;26.00;79.10;;;;;;4977958;28;20388;-68
2023/07/18 03:47:42;;;;;;;26.63;19.20;;;26.00;79.10;;;;;;4977819;28;20038;-68
2023/07/18 03:50:10;;;;;;;23.52;17.48;;;26.00;79.10;;;;;;4978460;28;20022;-68
2023/07/18 03:52:36;;;;;;;19.50;16.58;;;26.00;79.00;;;;;;4978122;28;20023;-69
2023/07/18 03:55:03;;;;;;;21.15;16.98;;;26.00;79.10;;;;;;4978335;28;20058;-67
2023/07/18 03:57:33;;;;;;;21.25;17.40;;;26.00;79.00;;;;;;4977837;28;20034;-65
2023/07/18 04:00:00;;;;;;;22.60;16.20;;;26.10;79.00;;;;;;4978017;28;20109;-69
2023/07/18 04:02:29;;;;;;;24.35;17.73;;;26.10;79.00;;;;;;4977945;28;20027;-68
2023/07/18 04:04:55;;;;;;;21.83;16.20;;;26.10;78.90;;;;;;4977884;28;20039;-68
2023/07/18 04:07:21;;;;;;;21.60;17.55;;;26.20;79.00;;;;;;4977464;28;20074;-71
2023/07/18 04:09:47;;;;;;;20.05;16.55;;;26.20;78.90;;;;;;4977559;28;20437;-71
2023/07/18 04:12:16;;;;;;;23.40;18.20;;;26.20;78.90;;;;;;4977513;28;20029;-67
2023/07/18 04:14:42;;;;;;;19.95;15.98;;;26.30;78.80;;;;;;4977473;28;20057;-69
2023/07/18 04:17:09;;;;;;;21.45;16.13;;;26.40;78.70;;;;;;4977307;28;20030;-67
2023/07/18 04:19:35;;;;;;;19.33;16.08;;;26.40;78.60;;;;;;4976565;28;20393;-64
2023/07/18 04:22:02;;;;;;;20.40;15.40;;;26.40;78.50;;;;;;4977613;28;20035;-68
2023/07/18 04:24:29;;;;;;;17.05;13.85;;;26.50;78.30;;;;;;4977248;28;20035;-69
2023/07/18 04:26:55;;;;;;;17.58;14.05;;;26.50;78.00;;;;;;4977124;28;20067;-69
2023/07/18 04:29:21;;;;;;;16.17;13.48;;;26.60;77.80;;;;;;4977711;28;20034;-69
2023/07/18 04:31:47;;;;;;;18.30;12.98;;;26.60;77.50;;;;;;4977211;28;20018;-68
2023/07/18 04:34:15;;;;;;;15.23;12.23;;;26.70;77.20;;;;;;4977118;28;20046;-69
2023/07/18 04:36:42;;;;;;;14.95;12.00;;;26.80;76.80;;;;;;4977031;28;20038;-68
2023/07/18 04:39:09;;;;;;;15.43;11.82;;;26.90;76.40;;;;;;4976817;28;20066;-65
2023/07/18 04:41:35;;;;;;;15.82;11.38;;;27.00;76.10;;;;;;4977269;28;20074;-69
2023/07/18 04:44:02;;;;;;;13.57;12.00;;;27.20;75.80;;;;;;4976951;28;20030;-70
2023/07/18 04:46:28;;;;;;;15.25;11.50;;;27.30;75.60;;;;;;4976826;28;20027;-69
2023/07/18 04:48:53;;;;;;;14.77;11.55;;;27.70;75.10;;;;;;4977126;28;20027;-67
2023/07/18 04:51:19;;;;;;;14.20;11.48;;;28.40;74.00;;;;;;4976833;28;20357;-68
2023/07/18 04:53:45;;;;;;;16.63;11.07;;;29.10;72.60;;;;;;4977066;28;20022;-67
2023/07/18 04:56:12;;;;;;;15.63;10.85;;;29.90;71.00;;;;;;4976944;28;20356;-67
2023/07/18 04:58:38;;;;;;;13.15;10.15;;;30.60;69.20;;;;;;4976726;28;20480;-68
2023/07/18 05:01:04;;;;;;;15.07;10.88;;;31.40;67.30;;;;;;4976645;28;20093;-67
2023/07/18 05:03:30;;;;;;;16.38;10.18;;;32.10;65.40;;;;;;4977171;28;20380;-70
2023/07/18 05:05:56;;;;;;;14.75;10.10;;;32.80;63.90;;;;;;4976500;28;20081;-69
2023/07/18 05:08:22;;;;;;;12.32;9.23;;;33.50;62.20;;;;;;4976630;28;20059;-69
2023/07/18 05:10:50;;;;;;;12.38;9.48;;;34.20;60.80;;;;;;4976581;28;20054;-70
2023/07/18 05:13:16;;;;;;;10.68;9.35;;;34.80;59.20;;;;;;4976539;28;20373;-68
2023/07/18 05:15:42;;;;;;;11.93;9.20;;;35.50;57.60;;;;;;4976757;28;20098;-68
2023/07/18 05:18:09;;;;;;;11.10;9.02;;;36.20;55.90;;;;;;4976673;28;20023;-68
2023/07/18 05:20:35;;;;;;;12.35;8.77;;;36.90;54.40;;;;;;4975518;28;20441;-67
2023/07/18 05:23:01;;;;;;;11.57;9.05;;;37.50;53.10;;;;;;4976400;28;20098;-71
2023/07/18 05:25:28;;;;;;;10.95;8.75;;;38.10;51.60;;;;;;4976345;28;20063;-70
2023/07/18 05:27:54;;;;;;;14.90;10.23;;;38.60;50.60;;;;;;4976552;28;20054;-69
2023/07/18 05:30:20;;;;;;;17.33;9.88;;;39.20;48.70;;;;;;4976767;28;20027;-71
2023/07/18 05:32:50;;;;;;;12.10;9.60;;;39.70;47.40;;;;;;4980479;28;20508;-71
2023/07/18 05:35:16;;;;;;;11.85;9.75;;;40.20;46.20;;;;;;4980384;28;20023;-71
2023/07/18 05:37:44;;;;;;;14.27;9.50;;;40.90;45.20;;;;;;4980491;28;20114;-70
2023/07/18 05:40:10;;;;;;;10.98;9.07;;;41.50;44.10;;;;;;4960945;29;20047;-69
2023/07/18 05:42:41;;;;;;;12.18;9.18;;;42.10;43.30;;;;;;4960892;29;20023;-66
2023/07/18 05:45:08;;;;;;;12.45;9.25;;;42.70;42.40;;;;;;4960605;28;20042;-67
2023/07/18 05:47:35;;;;;;;12.73;8.90;;;43.30;41.50;;;;;;4960799;28;20031;-68
2023/07/18 05:50:01;;;;;;;11.80;8.80;;;43.80;40.80;;;;;;4960761;28;20082;-70
2023/07/18 05:52:28;;;;;;;13.10;8.93;;;44.30;39.90;;;;;;4959755;28;20330;-70
2023/07/18 05:54:54;;;;;;;11.90;8.73;;;44.80;38.80;;;;;;4960634;28;20055;-66
2023/07/18 05:57:20;;;;;;;12.98;9.05;;;45.20;37.80;;;;;;4960654;28;20031;-71
2023/07/18 05:59:47;;;;;;;16.95;9.30;;;45.60;37.00;;;;;;4960981;28;20031;-68
2023/07/18 06:02:14;;;;;;;11.20;8.88;;;45.90;36.00;;;;;;4961162;28;20032;-68
2023/07/18 06:04:40;;;;;;;10.40;9.05;;;46.20;35.60;;;;;;4960868;28;20130;-67
2023/07/18 06:07:06;;;;;;;12.57;9.13;;;46.50;35.10;;;;;;4960517;28;20469;-66
2023/07/18 06:09:33;;;;;;;14.30;9.20;;;46.80;34.50;;;;;;4960463;28;20027;-68
2023/07/18 06:11:59;;;;;;;11.75;9.23;;;47.00;33.60;;;;;;4960425;28;20095;-69
2023/07/18 06:14:26;;;;;;;10.15;8.88;;;47.10;33.00;;;;;;4960385;28;20043;-70
2023/07/18 06:16:52;;;;;;;12.23;8.95;;;47.20;33.20;;;;;;4960203;28;20038;-67
2023/07/18 06:19:18;;;;;;;12.75;8.77;;;47.50;32.90;;;;;;4960239;28;20426;-70
2023/07/18 06:21:44;;;;;;;11.80;8.45;;;47.80;32.70;;;;;;4960465;28;20038;-68
2023/07/18 06:24:11;;;;;;;11.02;8.63;;;48.30;32.50;;;;;;4960175;28;20027;-69
2023/07/18 06:26:37;;;;;;;10.20;8.18;;;48.70;31.90;;;;;;4959939;29;20356;-69
2023/07/18 06:29:03;;;;;;;12.50;8.32;;;49.00;31.30;;;;;;4960067;28;20424;-67
2023/07/18 06:31:29;;;;;;;13.05;8.07;;;49.40;31.00;;;;;;4960079;28;20043;-67
2023/07/18 06:33:55;;;;;;;14.57;8.65;;;49.80;30.50;;;;;;4960520;28;20027;-67
2023/07/18 06:36:23;;;;;;;12.88;8.75;;;50.10;30.10;;;;;;4960161;28;20516;-67
2023/07/18 06:38:49;;;;;;;9.48;7.47;;;50.20;29.40;;;;;;4968592;28;20082;-67
2023/07/18 06:41:16;;;;;;;12.23;8.43;;;50.30;29.20;;;;;;4979177;28;20105;-67
2023/07/18 06:43:42;;;;;;;12.85;8.35;;;50.50;28.80;;;;;;4978330;28;20134;-66
2023/07/18 06:46:08;;;;;;;13.07;8.52;;;50.70;28.70;;;;;;4979285;28;20464;-68
2023/07/18 06:48:34;;;;;;;14.40;9.90;;;50.90;28.10;;;;;;4979426;28;20107;-66
2023/07/18 06:51:02;;;;;;;12.65;8.73;;;50.70;28.00;;;;;;4978945;28;20046;-67
2023/07/18 06:53:29;;;;;;;10.88;7.85;;;49.90;28.60;;;;;;4979166;28;20031;-68
2023/07/18 06:55:55;;;;;;;13.48;9.70;;;48.70;29.70;;;;;;4978962;28;20027;-67
2023/07/18 06:58:21;;;;;;;16.05;9.15;;;47.40;30.90;;;;;;4978881;28;20034;-69
2023/07/18 07:00:49;;;;;;;13.70;9.30;;;45.90;32.40;;;;;;4978892;28;20050;-69
2023/07/18 07:03:15;;;;;;;13.07;9.13;;;44.60;33.90;;;;;;4979393;28;20022;-65
2023/07/18 07:05:42;;;;;;;13.02;8.52;;;43.40;35.30;;;;;;4978735;28;20031;-67
2023/07/18 07:08:09;;;;;;;12.63;8.60;;;42.40;36.60;;;;;;4978658;28;20114;-69
2023/07/18 07:10:36;;;;;;;11.30;9.18;;;41.70;37.70;;;;;;4979458;28;20023;-69
2023/07/18 07:13:03;;;;;;;12.75;9.57;;;41.10;38.60;;;;;;4978711;28;20050;-68
2023/07/18 07:15:30;;;;;;;12.48;8.88;;;40.60;39.60;;;;;;4979184;28;20058;-66
2023/07/18 07:17:57;;;;;;;11.15;9.10;;;40.10;40.50;;;;;;4978799;28;20047;-68
2023/07/18 07:20:24;;;;;;;13.43;9.50;;;39.80;41.20;;;;;;4978552;28;20046;-70
2023/07/18 07:22:53;;;;;;;16.00;9.25;;;39.50;41.80;;;;;;4978457;28;20058;-69
2023/07/18 07:25:20;;;;;;;13.77;8.75;;;39.20;42.10;;;;;;4978455;28;20026;-68
2023/07/18 07:27:46;;;;;;;12.55;8.55;;;38.90;42.50;;;;;;4978335;28;20038;-69
2023/07/18 07:30:17;;;;;;;13.45;9.13;;;38.50;43.00;;;;;;4977221;28;20417;-67
2023/07/18 07:32:48;;;;;;;13.10;8.93;;;38.20;43.50;;;;;;4978200;28;20034;-68
2023/07/18 07:35:22;;;;;;;20.85;9.48;;;38.00;44.30;;;;;;4978340;28;20019;-67
2023/07/18 07:37:50;;;;;;;12.80;9.50;;;37.90;44.80;;;;;;4977889;28;20031;-64
2023/07/18 07:40:16;;;;;;;13.07;9.07;;;37.60;45.30;;;;;;4978138;28;20047;-68
2023/07/18 07:42:44;;;;;;;17.27;9.65;;;37.50;45.60;;;;;;4978063;28;20031;-69
2023/07/18 07:45:11;;;;;;;18.85;10.55;;;37.30;45.90;;;;;;4978047;28;20078;-68
2023/07/18 07:47:37;;;;;;;13.27;9.25;;;37.20;46.60;;;;;;4977921;28;20081;-69
2023/07/18 07:50:05;;;;;;;16.35;10.18;;;37.10;46.60;;;;;;4978062;28;20061;-66
2023/07/18 07:52:31;;;;;;;14.88;10.50;;;37.00;46.70;;;;;;4977915;28;20027;-68
2023/07/18 07:54:57;;;;;;;15.30;9.95;;;36.90;47.20;;;;;;4977807;28;20053;-65
2023/07/18 07:57:23;;;;;;;15.40;9.73;;;36.80;47.80;;;;;;4977956;28;20436;-66
2023/07/18 07:59:53;;;;;;;17.95;11.13;;;36.70;48.10;;;;;;4978302;28;20038;-67
2023/07/18 08:02:19;;;;;;;14.80;9.70;;;36.60;48.10;;;;;;4977746;28;20031;-68
2023/07/18 08:04:49;;;;;;;15.23;9.73;;;36.50;48.30;;;;;;4976807;28;20106;-66
2023/07/18 08:07:16;;;;;;;18.48;10.65;;;36.50;47.60;;;;;;4976576;28;20027;-69
2023/07/18 08:09:42;;;;;;;16.67;11.55;;;36.30;48.60;;;;;;4978122;28;20110;-69
2023/07/18 08:12:11;;;;;;;16.58;11.55;;;35.90;49.40;;;;;;4977830;28;20019;-69
2023/07/18 08:14:40;;;;;;;17.00;11.38;;;35.60;50.50;;;;;;4977563;28;20023;-67
2023/07/18 08:17:07;;;;;;;17.40;11.15;;;35.50;51.00;;;;;;4977384;28;20451;-66
2023/07/18 08:19:35;;;;;;;14.63;9.95;;;35.40;51.50;;;;;;4977719;28;20026;-66
2023/07/18 08:22:02;;;;;;;15.85;10.40;;;35.30;50.90;;;;;;4977943;28;20062;-69
2023/07/18 08:24:29;;;;;;;17.90;10.05;;;35.40;50.70;;;;;;4977358;28;20098;-70
2023/07/18 08:26:56;;;;;;;13.95;9.18;;;35.50;50.70;;;;;;4977414;28;20376;-66
2023/07/18 08:29:26;;;;;;;14.60;9.55;;;35.30;50.90;;;;;;4977325;28;20049;-67
2023/07/18 08:31:54;;;;;;;13.60;8.50;;;35.20;50.90;;;;;;4977514;28;20533;-66
2023/07/18 08:34:20;;;;;;;13.95;9.10;;;35.30;50.70;;;;;;4972042;28;20018;-66
2023/07/18 08:36:47;;;;;;;15.02;8.48;;;35.40;50.10;;;;;;4976382;28;20023;-70
2023/07/18 08:39:15;;;;;;;11.80;8.38;;;35.40;49.90;;;;;;4976209;28;20047;-68
2023/07/18 08:41:47;;;;;;;15.75;9.43;;;35.40;49.70;;;;;;4976089;28;20118;-67
2023/07/18 08:44:15;;;;;;;13.48;9.00;;;35.50;49.80;;;;;;4973651;28;20027;-66
2023/07/18 08:46:45;;;;;;;14.82;9.30;;;35.40;50.00;;;;;;4974716;28;20030;-67
2023/07/18 08:49:15;;;;;;;15.13;9.32;;;35.50;50.00;;;;;;4976309;28;20034;-68
2023/07/18 08:51:45;;;;;;;14.63;9.52;;;35.30;49.60;;;;;;4991888;28;20538;-69
2023/07/18 08:54:13;;;;;;;13.95;9.18;;;35.00;50.00;;;;;;4976799;28;20033;-68
2023/07/18 08:56:41;;;;;;;14.70;8.93;;;35.00;50.30;;;;;;4976885;28;20026;-66
2023/07/18 08:59:07;;;;;;;15.40;9.73;;;35.00;50.30;;;;;;4976849;28;20031;-69
2023/07/18 09:01:33;;;;;;;13.38;9.52;;;34.90;50.60;;;;;;4976718;28;20125;-67
2023/07/18 09:03:59;;;;;;;13.00;8.95;;;34.80;50.90;;;;;;4976056;28;20484;-68
2023/07/18 09:06:25;;;;;;;13.60;9.60;;;34.80;48.90;;;;;;4973123;28;20131;-69
2023/07/18 09:08:54;;;;;;;12.50;9.32;;;34.70;50.80;;;;;;4974619;28;20106;-67
2023/07/18 09:11:20;;;;;;;17.15;9.35;;;34.60;51.30;;;;;;4974981;28;20034;-66
2023/07/18 09:13:47;;;;;;;17.95;9.60;;;34.70;51.70;;;;;;4975857;28;20026;-68
2023/07/18 09:16:17;;;;;;;15.65;10.77;;;34.80;51.00;;;;;;4976452;28;20046;-68
2023/07/18 09:18:54;;;;;;;16.45;10.43;;;34.80;51.30;;;;;;4975308;28;20114;-65
2023/07/18 09:21:21;;;;;;;17.52;10.05;;;34.80;51.20;;;;;;4975651;28;20031;-68
2023/07/18 09:23:48;;;;;;;15.07;10.05;;;34.80;50.70;;;;;;4976077;28;20356;-71
2023/07/18 09:26:19;;;;;;;14.85;10.10;;;34.90;51.60;;;;;;4975990;28;20400;-67
2023/07/18 09:28:46;;;;;;;15.25;10.45;;;34.90;51.30;;;;;;4976144;28;20395;-66
2023/07/18 09:31:25;;;;;;;12.95;9.95;;;35.00;51.80;;;;;;4976088;28;20055;-69
2023/07/18 09:33:53;;;;;;;16.50;10.25;;;35.00;50.80;;;;;;4976244;28;20380;-66
2023/07/18 09:36:26;;;;;;;14.65;9.65;;;34.90;50.50;;;;;;4976243;28;20031;-68
2023/07/18 09:38:52;;;;;;;15.55;9.80;;;34.80;50.80;;;;;;4971283;28;20361;-68
2023/07/18 09:41:20;;;;;;;14.90;9.43;;;34.70;50.80;;;;;;4975048;28;20041;-65
2023/07/18 09:43:47;;;;;;;13.55;9.45;;;34.70;50.50;;;;;;4974419;28;20524;-67
2023/07/18 09:46:14;;;;;;;12.48;9.00;;;34.70;48.10;;;;;;4973686;28;20034;-69
2023/07/18 09:48:41;;;;;;;14.77;9.02;;;34.50;48.30;;;;;;4974528;28;20022;-70
2023/07/18 09:51:14;;;;;;;12.95;9.30;;;34.50;50.30;;;;;;4975268;28;20475;-69
2023/07/18 09:53:45;;;;;;;13.75;9.55;;;34.50;50.70;;;;;;4975017;28;20022;-65
2023/07/18 09:56:14;;;;;;;15.38;8.60;;;34.70;49.80;;;;;;4976038;28;20039;-68
2023/07/18 09:58:43;;;;;;;14.85;8.27;;;34.60;49.80;;;;;;4976181;28;20027;-68
2023/07/18 10:01:13;;;;;;;11.93;8.00;;;34.70;50.00;;;;;;4975840;28;20058;-68
2023/07/18 10:03:39;;;;;;;12.77;8.43;;;34.80;49.80;;;;;;4976681;28;20034;-67
2023/07/18 10:06:11;;;;;;;11.27;8.75;;;34.90;47.60;;;;;;4976280;28;20053;-67
2023/07/18 10:08:43;;;;;;;14.40;8.38;;;34.70;48.60;;;;;;4976324;28;20038;-66
2023/07/18 10:11:11;;;;;;;13.23;8.30;;;34.60;45.70;;;;;;4976106;28;20118;-67
2023/07/18 10:13:42;;;;;;;13.15;8.60;;;34.40;47.70;;;;;;4976010;28;20098;-69
2023/07/18 10:16:14;;;;;;;14.18;8.38;;;34.40;49.10;;;;;;4974060;28;20039;-69
2023/07/18 10:18:47;;;;;;;12.30;8.45;;;34.50;49.10;;;;;;4977432;28;20042;-68
2023/07/18 10:21:36;;;;;;;11.73;8.20;;;34.60;49.10;;;;;;4979599;28;20023;-70
2023/07/18 10:24:20;;;;;;;13.40;8.35;;;34.70;46.80;;;;;;4978622;28;20475;-69
2023/07/18 10:26:52;;;;;;;14.85;8.57;;;34.50;48.80;;;;;;4979648;28;20034;-65
2023/07/18 10:29:18;;;;;;;11.38;8.02;;;34.50;48.40;;;;;;4979498;28;20352;-65
2023/07/18 10:31:45;;;;;;;15.63;8.52;;;34.50;48.40;;;;;;4979471;28;20027;-65
2023/07/18 10:34:16;;;;;;;15.02;8.27;;;34.60;47.60;;;;;;4979706;28;20062;-70
2023/07/18 10:36:59;;;;;;;10.50;8.43;;;34.50;46.80;;;;;;4979596;28;20023;-65
2023/07/18 10:39:43;;;;;;;14.60;8.13;;;34.40;48.60;;;;;;4978237;28;20046;-66
2023/07/18 10:42:21;;;;;;;12.40;8.20;;;34.40;49.70;;;;;;4979191;28;20085;-70
2023/07/18 10:44:55;;;;;;;13.40;8.32;;;34.40;48.40;;;;;;4979518;28;20038;-68
2023/07/18 10:47:28;;;;;;;10.00;7.63;;;34.50;47.80;;;;;;4979333;28;20357;-65
2023/07/18 10:49:54;;;;;;;16.00;8.32;;;34.50;47.50;;;;;;4979122;28;20165;-69
2023/07/18 10:52:21;;;;;;;14.07;8.40;;;34.50;47.10;;;;;;4979106;28;20027;-66
2023/07/18 10:54:50;;;;;;;16.25;8.80;;;34.50;46.70;;;;;;4979742;28;20106;-65
2023/07/18 10:57:22;;;;;;;13.30;7.72;;;34.50;47.10;;;;;;4979218;28;20102;-65
2023/07/18 10:59:50;;;;;;;13.13;7.83;;;34.40;45.70;;;;;;4979509;28;20112;-69
2023/07/18 11:02:16;;;;;;;13.18;8.07;;;34.50;47.20;;;;;;4979400;28;20254;-65
2023/07/18 11:04:42;;;;;;;9.63;7.15;;;34.50;47.20;;;;;;4961908;28;20400;-65
2023/07/18 11:07:10;;;;;;;13.02;7.63;;;34.60;47.20;;;;;;4978607;28;20027;-65
2023/07/18 11:09:36;;;;;;;11.82;7.15;;;34.60;45.90;;;;;;4978730;28;20027;-65
2023/07/18 11:12:04;;;;;;;12.85;7.95;;;34.70;46.60;;;;;;4978749;28;20457;-70
2023/07/18 11:14:39;;;;;;;13.85;7.43;;;34.80;46.90;;;;;;4978929;28;20038;-66
2023/07/18 11:17:13;;;;;;;10.52;7.40;;;34.90;47.10;;;;;;4978560;28;20041;-70
2023/07/18 11:19:39;;;;;;;9.85;7.47;;;34.90;47.00;;;;;;4978851;28;20126;-66
2023/07/18 11:22:07;;;;;;;11.90;7.78;;;34.90;46.90;;;;;;4978786;28;20081;-70
2023/07/18 11:24:34;;;;;;;12.75;7.90;;;34.90;46.70;;;;;;4977538;28;20035;-70
2023/07/18 11:27:22;;;;;;;12.48;7.68;;;35.00;46.90;;;;;;4977947;28;20453;-65
2023/07/18 11:30:05;;;;;;;10.55;7.15;;;35.00;47.20;;;;;;4978346;28;20037;-65
2023/07/18 11:32:40;;;;;;;11.75;7.60;;;35.10;45.40;;;;;;4978322;28;20031;-70
2023/07/18 11:35:11;;;;;;;12.55;7.80;;;35.00;42.10;;;;;;4978300;28;20035;-65
2023/07/18 11:37:46;;;;;;;14.40;8.57;;;34.50;42.30;;;;;;4978404;28;20031;-65
2023/07/18 11:40:20;;;;;;;11.70;8.02;;;34.20;47.10;;;;;;4977682;28;20047;-69
2023/07/18 11:42:49;;;;;;;13.18;7.60;;;34.20;47.60;;;;;;4977306;28;20042;-65
2023/07/18 11:45:20;;;;;;;12.48;8.25;;;34.40;47.70;;;;;;4977163;28;20031;-69
2023/07/18 11:47:48;;;;;;;13.18;8.00;;;34.50;43.40;;;;;;4977932;28;20042;-69
2023/07/18 11:50:15;;;;;;;12.38;7.57;;;34.20;44.50;;;;;;4977949;28;20019;-69
2023/07/18 11:52:44;;;;;;;12.52;8.18;;;34.00;44.70;;;;;;4977973;28;20456;-70
2023/07/18 11:55:10;;;;;;;10.35;7.32;;;34.00;45.10;;;;;;4977888;28;20392;-69
2023/07/18 11:57:36;;;;;;;11.52;8.15;;;33.90;45.30;;;;;;4977829;28;20030;-64
2023/07/18 12:00:08;;;;;;;10.40;8.07;;;33.90;43.00;;;;;;4977827;28;20062;-64
2023/07/18 12:02:34;;;;;;;12.40;8.40;;;33.60;44.00;;;;;;4978091;28;20039;-69
2023/07/18 12:05:01;;;;;;;11.35;8.10;;;33.60;45.40;;;;;;4977746;28;20466;-64
2023/07/18 12:07:27;;;;;;;15.20;8.57;;;33.90;47.30;;;;;;4977572;28;20508;-70
2023/07/18 12:09:53;;;;;;;13.40;8.38;;;34.10;47.80;;;;;;4977696;28;20472;-65
2023/07/18 12:12:21;;;;;;;13.20;8.35;;;34.40;48.10;;;;;;4977568;28;20045;-69
2023/07/18 12:14:47;;;;;;;11.20;7.20;;;34.60;47.80;;;;;;4976867;28;20033;-67
2023/07/18 12:17:13;;;;;;;13.32;7.70;;;34.80;47.60;;;;;;4976266;28;20031;-68
2023/07/18 12:19:40;;;;;;;12.55;7.57;;;34.90;46.10;;;;;;4976223;28;20030;-66
2023/07/18 12:22:06;;;;;;;12.48;7.93;;;34.90;43.90;;;;;;4977336;28;20038;-69
2023/07/18 12:24:32;;;;;;;11.20;7.65;;;34.40;43.90;;;;;;4976798;28;20031;-70
2023/07/18 12:26:59;;;;;;;11.30;7.97;;;34.00;44.40;;;;;;4976577;28;20081;-68
2023/07/18 12:29:25;;;;;;;12.38;7.78;;;33.70;44.80;;;;;;4977240;28;20027;-65
2023/07/18 12:31:53;;;;;;;16.88;9.02;;;33.40;45.20;;;;;;4977225;28;20121;-66
2023/07/18 12:34:21;;;;;;;11.48;8.48;;;33.30;47.20;;;;;;4959793;28;20014;-66
2023/07/18 12:36:48;;;;;;;12.00;7.65;;;33.40;45.50;;;;;;4975902;28;20034;-67